createdAt,value
2024-04-10T00:01:45.573Z,101181.40
2024-04-10T00:04:13.286Z,101179.00
2024-04-10T00:06:40.608Z,101175.80
2024-04-10T00:09:08.116Z,101180.83
2024-04-10T00:11:35.538Z,101181.56
2024-04-10T00:14:03.236Z,101181.61
2024-04-10T00:16:30.970Z,101185.75
2024-04-10T00:18:58.358Z,101187.74
2024-04-10T00:21:25.771Z,101189.41
2024-04-10T00:23:53.069Z,101191.48
2024-04-10T00:26:20.528Z,101191.86
2024-04-10T00:28:47.970Z,101189.73
2024-04-10T00:31:15.235Z,101180.09
2024-04-10T00:33:42.552Z,101174.64
2024-04-10T00:36:12.296Z,101173.86
2024-04-10T00:38:39.537Z,101172.27
2024-04-10T00:41:07.344Z,101166.90
2024-04-10T00:43:34.851Z,101163.52
2024-04-10T00:46:15.910Z,101159.27
2024-04-10T00:48:43.660Z,101152.90
2024-04-10T00:51:12.335Z,101153.45
2024-04-10T00:53:41.041Z,101155.72
2024-04-10T00:56:09.837Z,101154.24
2024-04-10T00:58:37.578Z,101147.13
2024-04-10T01:01:05.673Z,101148.15
2024-04-10T01:03:34.681Z,101148.96
2024-04-10T01:06:03.816Z,101147.36
2024-04-10T01:08:32.495Z,101148.40
2024-04-10T01:11:00.635Z,101149.70
2024-04-10T01:13:28.251Z,101150.98
2024-04-10T01:15:56.988Z,101155.33
2024-04-10T01:18:24.721Z,101161.16
2024-04-10T01:20:52.068Z,101162.84
2024-04-10T01:23:20.000Z,101167.27
2024-04-10T01:25:47.765Z,101168.83
2024-04-10T01:28:15.198Z,101173.33
2024-04-10T01:30:42.469Z,101165.52
2024-04-10T01:33:09.985Z,101162.73
2024-04-10T01:35:37.338Z,101164.20
2024-04-10T01:38:04.826Z,101165.09
2024-04-10T01:40:32.192Z,101162.54
2024-04-10T01:42:59.555Z,101168.22
2024-04-10T01:45:26.953Z,101172.81
2024-04-10T01:47:54.406Z,101171.35
2024-04-10T01:50:21.799Z,101175.45
2024-04-10T01:52:49.331Z,101182.05
2024-04-10T01:55:16.580Z,101190.64
2024-04-10T01:57:45.524Z,101187.95
2024-04-10T02:00:13.324Z,101192.56
2024-04-10T02:02:40.737Z,101194.05
2024-04-10T02:05:08.238Z,101194.90
2024-04-10T02:07:35.464Z,101194.92
2024-04-10T02:10:02.622Z,101200.03
2024-04-10T02:12:29.776Z,101198.98
2024-04-10T02:14:57.033Z,101194.13
2024-04-10T02:17:24.903Z,101195.17
2024-04-10T02:19:52.704Z,101192.00
2024-04-10T02:22:19.967Z,101190.40
2024-04-10T02:24:47.568Z,101187.92
2024-04-10T02:27:14.971Z,101192.61
2024-04-10T02:29:42.200Z,101194.49
2024-04-10T02:32:09.542Z,101196.13
2024-04-10T02:34:38.002Z,101197.93
2024-04-10T02:37:05.993Z,101197.84
2024-04-10T02:39:33.353Z,101201.17
2024-04-10T02:42:00.606Z,101204.52
2024-04-10T02:44:28.148Z,101206.75
2024-04-10T02:46:56.577Z,101206.77
2024-04-10T02:49:23.781Z,101204.51
2024-04-10T02:51:50.995Z,101207.88
2024-04-10T02:54:18.197Z,101214.64
2024-04-10T02:56:46.066Z,101216.48
2024-04-10T02:59:13.315Z,101220.42
2024-04-10T03:01:41.000Z,101222.82
2024-04-10T03:04:08.684Z,101225.06
2024-04-10T03:06:36.101Z,101222.35
2024-04-10T03:09:03.342Z,101217.94
2024-04-10T03:11:32.708Z,101215.91
2024-04-10T03:14:00.052Z,101213.90
2024-04-10T03:16:27.752Z,101218.11
2024-04-10T03:18:55.350Z,101216.60
2024-04-10T03:21:22.635Z,101213.31
2024-04-10T03:23:50.451Z,101213.04
2024-04-10T03:26:17.766Z,101207.52
2024-04-10T03:28:44.954Z,101204.55
2024-04-10T03:31:15.016Z,101205.23
2024-04-10T03:33:42.423Z,101208.10
2024-04-10T03:36:10.035Z,101207.80
2024-04-10T03:38:37.520Z,101214.08
2024-04-10T03:41:04.834Z,101215.52
2024-04-10T03:43:32.210Z,101217.47
2024-04-10T03:46:01.153Z,101215.76
2024-04-10T03:48:29.207Z,101213.28
2024-04-10T03:51:00.718Z,101215.98
2024-04-10T03:53:29.323Z,101218.08
2024-04-10T03:55:57.734Z,101223.31
2024-04-10T03:58:25.387Z,101226.35
2024-04-10T04:00:52.754Z,101229.16
2024-04-10T04:03:26.113Z,101225.10
2024-04-10T04:05:53.889Z,101228.94
2024-04-10T04:08:24.210Z,101227.70
2024-04-10T04:10:52.038Z,101228.30
2024-04-10T04:13:19.406Z,101229.95
2024-04-10T04:15:46.796Z,101234.98
2024-04-10T04:18:14.000Z,101235.20
2024-04-10T04:20:41.436Z,101234.05
2024-04-10T04:23:08.810Z,101235.77
2024-04-10T04:25:39.081Z,101237.01
2024-04-10T04:28:06.718Z,101235.27
2024-04-10T04:30:37.308Z,101241.52
2024-04-10T04:33:05.495Z,101240.39
2024-04-10T04:35:33.019Z,101239.55
2024-04-10T04:38:00.980Z,101240.77
2024-04-10T04:40:31.662Z,101244.63
2024-04-10T04:43:16.954Z,101250.80
2024-04-10T04:45:44.813Z,101250.15
2024-04-10T04:48:16.067Z,101251.76
2024-04-10T04:50:59.914Z,101250.05
2024-04-10T04:53:27.763Z,101250.98
2024-04-10T04:55:57.314Z,101253.74
2024-04-10T04:58:28.082Z,101261.89
2024-04-10T05:00:57.439Z,101265.48
2024-04-10T05:03:43.454Z,101264.44
2024-04-10T05:06:11.229Z,101263.34
2024-04-10T05:08:38.680Z,101260.80
2024-04-10T05:11:09.930Z,101263.16
2024-04-10T05:13:37.879Z,101268.28
2024-04-10T05:16:05.200Z,101269.09
2024-04-10T05:18:32.495Z,101267.91
2024-04-10T05:21:06.887Z,101268.26
2024-04-10T05:23:42.661Z,101269.77
2024-04-10T05:26:10.428Z,101277.20
2024-04-10T05:28:37.860Z,101275.72
2024-04-10T05:31:05.540Z,101274.30
2024-04-10T05:33:32.949Z,101277.40
2024-04-10T05:36:02.151Z,101278.23
2024-04-10T05:38:33.201Z,101274.16
2024-04-10T05:41:04.560Z,101273.78
2024-04-10T05:43:31.870Z,101272.50
2024-04-10T05:46:00.230Z,101272.63
2024-04-10T05:48:27.991Z,101276.23
2024-04-10T05:50:59.800Z,101284.42
2024-04-10T05:53:27.339Z,101284.61
2024-04-10T05:55:54.722Z,101284.95
2024-04-10T05:58:23.508Z,101288.29
2024-04-10T06:00:52.468Z,101283.03
2024-04-10T06:03:21.814Z,101283.74
2024-04-10T06:05:51.344Z,101282.26
2024-04-10T06:08:19.264Z,101282.89
2024-04-10T06:10:52.190Z,101282.09
2024-04-10T06:13:19.445Z,101281.73
2024-04-10T06:15:46.821Z,101279.43
2024-04-10T06:18:14.356Z,101276.95
2024-04-10T06:20:42.284Z,101272.20
2024-04-10T06:23:09.611Z,101267.79
2024-04-10T06:25:36.920Z,101270.56
2024-04-10T06:28:04.958Z,101274.55
2024-04-10T06:30:32.289Z,101271.18
2024-04-10T06:32:59.698Z,101271.07
2024-04-10T06:35:27.380Z,101270.80
2024-04-10T06:38:01.000Z,101270.48
2024-04-10T06:40:29.828Z,101271.72
2024-04-10T06:42:57.921Z,101273.15
2024-04-10T06:45:26.092Z,101273.62
2024-04-10T06:47:53.693Z,101273.39
2024-04-10T06:50:21.071Z,101273.26
2024-04-10T06:52:48.615Z,101279.08
2024-04-10T06:55:22.704Z,101278.26
2024-04-10T06:57:54.688Z,101279.08
2024-04-10T07:00:22.245Z,101279.75
2024-04-10T07:02:49.656Z,101280.91
2024-04-10T07:05:17.003Z,101281.55
2024-04-10T07:07:44.298Z,101282.47
2024-04-10T07:10:11.545Z,101286.77
2024-04-10T07:12:39.341Z,101280.41
2024-04-10T07:15:07.360Z,101275.79
2024-04-10T07:17:34.710Z,101279.89
2024-04-10T07:20:02.329Z,101279.14
2024-04-10T07:22:29.613Z,101277.59
2024-04-10T07:24:57.054Z,101273.77
2024-04-10T07:27:24.317Z,101266.92
2024-04-10T07:29:52.570Z,101263.73
2024-04-10T07:32:19.857Z,101263.05
2024-04-10T07:34:47.567Z,101265.56
2024-04-10T07:37:14.821Z,101261.16
2024-04-10T07:39:42.419Z,101256.08
2024-04-10T07:42:10.449Z,101257.19
2024-04-10T07:44:39.670Z,101252.59
2024-04-10T07:47:08.176Z,101254.34
2024-04-10T07:49:36.356Z,101250.06
2024-04-10T07:52:03.760Z,101243.91
2024-04-10T07:54:33.024Z,101242.57
2024-04-10T07:57:00.677Z,101241.91
2024-04-10T07:59:28.138Z,101238.42
2024-04-10T08:01:55.439Z,101237.85
2024-04-10T08:04:24.178Z,101239.65
2024-04-10T08:06:51.488Z,101234.91
2024-04-10T08:09:19.247Z,101236.90
2024-04-10T08:11:47.027Z,101237.27
2024-04-10T08:14:14.739Z,101236.81
2024-04-10T08:16:42.494Z,101238.21
2024-04-10T08:19:09.899Z,101235.91
2024-04-10T08:21:38.555Z,101228.28
2024-04-10T08:24:05.983Z,101226.97
2024-04-10T08:26:35.221Z,101225.99
2024-04-10T08:29:04.089Z,101220.52
2024-04-10T08:31:31.775Z,101216.52
2024-04-10T08:33:59.283Z,101216.47
2024-04-10T08:36:28.989Z,101216.34
2024-04-10T08:38:56.488Z,101213.60
2024-04-10T08:41:24.177Z,101212.16
2024-04-10T08:43:53.114Z,101212.19
2024-04-10T08:46:24.424Z,101214.36
2024-04-10T08:48:56.303Z,101210.69
2024-04-10T08:51:25.019Z,101213.23
2024-04-10T08:53:54.252Z,101210.40
2024-04-10T08:56:21.574Z,101206.45
2024-04-10T08:58:48.805Z,101207.70
2024-04-10T09:01:34.664Z,101208.08
2024-04-10T09:04:09.900Z,101207.44
2024-04-10T09:06:37.680Z,101208.16
2024-04-10T09:09:07.969Z,101204.70
2024-04-10T09:11:35.566Z,101200.11
2024-04-10T09:14:07.356Z,101200.84
2024-04-10T09:16:36.118Z,101198.98
2024-04-10T09:19:14.600Z,101198.29
2024-04-10T09:21:43.253Z,101193.85
2024-04-10T09:24:10.993Z,101191.45
2024-04-10T09:26:39.443Z,101190.70
2024-04-10T09:29:10.917Z,101189.42
2024-04-10T09:31:39.384Z,101188.48
2024-04-10T09:34:07.571Z,101183.44
2024-04-10T09:36:35.527Z,101178.60
2024-04-10T09:39:08.559Z,101181.11
2024-04-10T09:41:36.291Z,101179.13
2024-04-10T09:44:04.901Z,101177.34
2024-04-10T09:46:36.439Z,101178.97
2024-04-10T09:52:37.372Z,101174.95
2024-04-10T09:55:04.901Z,101179.19
2024-04-10T09:57:32.584Z,101172.71
2024-04-10T10:00:02.992Z,101174.23
2024-04-10T10:02:35.517Z,101174.16
2024-04-10T10:05:02.944Z,101172.50
2024-04-10T10:07:30.881Z,101174.20
2024-04-10T10:10:08.956Z,101175.02
2024-04-10T10:12:36.580Z,101175.02
2024-04-10T10:15:11.342Z,101173.16
2024-04-10T10:20:31.474Z,101177.14
2024-04-10T10:23:02.501Z,101180.70
2024-04-10T10:25:29.849Z,101184.28
2024-04-10T10:28:07.862Z,101186.46
2024-04-10T10:30:34.919Z,101186.08
2024-04-10T10:33:04.579Z,101185.44
2024-04-10T10:35:31.515Z,101186.27
2024-04-10T10:37:58.797Z,101180.56
2024-04-10T10:40:25.464Z,101183.27
2024-04-10T10:43:05.728Z,101177.80
2024-04-10T10:45:34.980Z,101179.14
2024-04-10T10:48:05.237Z,101180.09
2024-04-10T10:50:33.375Z,101178.61
2024-04-10T10:53:01.553Z,101175.73
2024-04-10T10:55:29.602Z,101172.02
2024-04-10T10:58:15.391Z,101172.65
2024-04-10T11:00:42.095Z,101168.42
2024-04-10T11:03:16.951Z,101166.39
2024-04-10T11:05:51.031Z,101165.67
2024-04-10T11:08:24.688Z,101162.91
2024-04-10T11:10:52.392Z,101158.88
2024-04-10T11:13:19.471Z,101162.89
2024-04-10T11:15:47.554Z,101163.52
2024-04-10T11:18:19.937Z,101163.60
2024-04-10T11:20:51.091Z,101158.16
2024-04-10T11:23:27.926Z,101160.76
2024-04-10T11:26:01.694Z,101155.08
2024-04-10T11:28:28.817Z,101157.27
2024-04-10T11:31:04.441Z,101151.77
2024-04-10T11:33:46.756Z,101152.67
2024-04-10T11:36:19.582Z,101148.89
2024-04-10T11:38:49.042Z,101149.48
2024-04-10T11:41:15.898Z,101152.16
2024-04-10T11:43:42.773Z,101142.92
2024-04-10T11:46:10.017Z,101140.48
2024-04-10T11:48:39.993Z,101137.73
2024-04-10T11:51:07.228Z,101139.41
2024-04-10T11:53:34.149Z,101136.42
2024-04-10T11:56:00.893Z,101130.50
2024-04-10T11:58:27.533Z,101131.60
2024-04-10T12:00:54.277Z,101131.80
2024-04-10T12:03:22.204Z,101127.95
2024-04-10T12:05:50.468Z,101126.17
2024-04-10T12:08:19.508Z,101125.13
2024-04-10T12:10:46.546Z,101123.95
2024-04-10T12:13:13.206Z,101122.77
2024-04-10T12:15:40.660Z,101119.52
2024-04-10T12:18:07.579Z,101118.58
2024-04-10T12:20:34.723Z,101119.11
2024-04-10T12:23:01.433Z,101119.24
2024-04-10T12:25:29.130Z,101114.52
2024-04-10T12:27:55.803Z,101115.34
2024-04-10T12:30:22.951Z,101110.59
2024-04-10T12:32:49.738Z,101109.89
2024-04-10T12:35:35.827Z,101112.73
2024-04-10T12:38:06.620Z,101105.70
2024-04-10T12:40:36.351Z,101106.95
2024-04-10T12:43:03.988Z,101102.13
2024-04-10T12:45:31.764Z,101100.67
2024-04-10T12:47:58.946Z,101097.89
2024-04-10T12:50:26.470Z,101094.96
2024-04-10T12:52:53.542Z,101097.16
2024-04-10T12:55:20.150Z,101095.96
2024-04-10T12:57:47.838Z,101094.38
2024-04-10T13:00:14.894Z,101096.73
2024-04-10T13:02:44.251Z,101096.54
2024-04-10T13:05:11.872Z,101092.73
2024-04-10T13:07:38.664Z,101096.02
2024-04-10T13:10:05.980Z,101089.38
2024-04-10T13:12:33.443Z,101084.34
2024-04-10T13:15:01.547Z,101087.14
2024-04-10T13:17:32.009Z,101082.62
2024-04-10T13:20:00.157Z,101085.58
2024-04-10T13:22:27.226Z,101085.95
2024-04-10T13:24:54.104Z,101086.84
2024-04-10T13:27:21.269Z,101085.86
2024-04-10T13:29:50.748Z,101085.96
2024-04-10T13:32:17.512Z,101082.55
2024-04-10T13:34:49.130Z,101077.36
2024-04-10T13:37:26.126Z,101078.77
2024-04-10T13:39:57.834Z,101080.88
2024-04-10T13:42:24.587Z,101080.20
2024-04-10T13:44:51.556Z,101080.77
2024-04-10T13:47:18.506Z,101079.02
2024-04-10T13:49:45.469Z,101080.98
2024-04-10T13:52:12.330Z,101081.35
2024-04-10T13:54:40.090Z,101084.30
2024-04-10T13:57:06.735Z,101083.21
2024-04-10T13:59:33.582Z,101083.27
2024-04-10T14:02:00.808Z,101082.01
2024-04-10T14:04:28.026Z,101082.77
2024-04-10T14:06:54.899Z,101080.74
2024-04-10T14:09:22.178Z,101084.34
2024-04-10T14:11:49.407Z,101083.61
2024-04-10T14:14:16.670Z,101085.48
2024-04-10T14:16:48.233Z,101082.07
2024-04-10T14:19:15.052Z,101076.91
2024-04-10T14:21:41.954Z,101079.73
2024-04-10T14:24:08.902Z,101076.36
2024-04-10T14:26:36.294Z,101075.45
2024-04-10T14:29:03.419Z,101074.67
2024-04-10T14:31:30.158Z,101068.77
2024-04-10T14:33:57.612Z,101065.23
2024-04-10T14:37:00.561Z,101061.70
2024-04-10T14:39:30.045Z,101066.30
2024-04-10T14:41:57.759Z,101065.91
2024-04-10T14:44:44.014Z,101069.69
2024-04-10T14:47:22.742Z,101070.71
2024-04-10T14:49:52.179Z,101073.00
2024-04-10T14:52:18.897Z,101073.11
2024-04-10T14:55:39.277Z,101076.17
2024-04-10T14:58:12.774Z,101080.67
2024-04-10T15:00:54.544Z,101080.23
2024-04-10T15:06:52.856Z,101086.03
2024-04-10T15:09:28.352Z,101086.18
2024-04-10T15:11:59.616Z,101082.66
2024-04-10T15:14:27.748Z,101082.30
2024-04-10T15:17:04.690Z,101077.42
2024-04-10T15:24:01.226Z,101085.47
2024-04-10T15:26:49.986Z,101088.98
2024-04-10T15:29:16.821Z,101089.61
2024-04-10T15:31:44.146Z,101092.96
2024-04-10T15:34:13.731Z,101092.60
2024-04-10T15:36:40.593Z,101100.69
2024-04-10T15:39:07.767Z,101095.84
2024-04-10T15:41:34.934Z,101096.53
2024-04-10T15:44:01.995Z,101100.48
2024-04-10T15:46:28.782Z,101098.39
2024-04-10T15:48:58.491Z,101102.02
2024-04-10T15:51:26.428Z,101105.88
2024-04-10T15:53:54.229Z,101108.95
2024-04-10T15:56:20.978Z,101113.63
2024-04-10T15:58:47.621Z,101119.39
2024-04-10T16:01:14.904Z,101119.27
2024-04-10T16:03:47.295Z,101121.72
2024-04-10T16:06:16.747Z,101123.20
2024-04-10T16:08:44.906Z,101125.16
2024-04-10T16:11:18.503Z,101127.52
2024-04-10T16:13:50.802Z,101135.83
2024-04-10T16:16:19.298Z,101133.12
2024-04-10T16:18:47.397Z,101131.86
2024-04-10T16:21:15.537Z,101136.45
2024-04-10T16:23:46.662Z,101136.36
2024-04-10T16:26:15.245Z,101143.41
2024-04-10T16:28:42.349Z,101143.80
2024-04-10T16:31:13.193Z,101145.00
2024-04-10T16:33:40.250Z,101149.69
2024-04-10T16:36:11.262Z,101156.27
2024-04-10T16:38:38.872Z,101162.61
2024-04-10T16:41:05.517Z,101164.20
2024-04-10T16:43:34.613Z,101167.76
2024-04-10T16:46:06.417Z,101171.91
2024-04-10T16:48:33.446Z,101176.68
2024-04-10T16:51:08.279Z,101178.47
2024-04-10T16:53:37.559Z,101182.73
2024-04-10T16:56:06.909Z,101181.46
2024-04-10T16:58:33.975Z,101182.49
2024-04-10T17:01:06.018Z,101184.98
2024-04-10T17:03:36.551Z,101188.73
2024-04-10T17:06:04.988Z,101189.41
2024-04-10T17:08:32.428Z,101192.23
2024-04-10T17:10:59.379Z,101199.63
2024-04-10T17:13:26.934Z,101202.42
2024-04-10T17:15:54.145Z,101205.83
2024-04-10T17:18:42.220Z,101212.77
2024-04-10T17:21:27.667Z,101210.58
2024-04-10T17:23:54.435Z,101211.21
2024-04-10T17:26:24.290Z,101214.88
2024-04-10T17:28:52.805Z,101220.75
2024-04-10T17:31:25.965Z,101221.97
2024-04-10T17:33:56.179Z,101225.25
2024-04-10T17:36:25.305Z,101228.01
2024-04-10T17:38:52.061Z,101230.19
2024-04-10T17:41:19.248Z,101231.36
2024-04-10T17:43:46.051Z,101234.11
2024-04-10T17:46:12.753Z,101237.64
2024-04-10T17:48:44.605Z,101238.78
2024-04-10T17:51:17.395Z,101241.17
2024-04-10T17:53:46.524Z,101245.63
2024-04-10T17:56:20.130Z,101246.30
2024-04-10T17:58:46.985Z,101248.76
2024-04-10T18:01:13.800Z,101246.63
2024-04-10T18:03:42.829Z,101248.86
2024-04-10T18:06:11.976Z,101250.30
2024-04-10T18:08:39.523Z,101248.75
2024-04-10T18:11:06.725Z,101248.95
2024-04-10T18:13:33.550Z,101248.71
2024-04-10T18:16:00.778Z,101254.12
2024-04-10T18:18:28.450Z,101253.61
2024-04-10T18:21:00.104Z,101259.16
2024-04-10T18:23:27.669Z,101260.13
2024-04-10T18:26:04.924Z,101266.04
2024-04-10T18:28:33.022Z,101265.73
2024-04-10T18:31:01.268Z,101272.36
2024-04-10T18:33:31.930Z,101273.70
2024-04-10T18:36:04.186Z,101278.19
2024-04-10T18:38:31.030Z,101279.85
2024-04-10T18:40:59.311Z,101278.51
2024-04-10T18:43:34.589Z,101280.23
2024-04-10T18:46:05.561Z,101282.69
2024-04-10T18:48:37.068Z,101287.74
2024-04-10T18:51:10.648Z,101286.45
2024-04-10T18:53:37.762Z,101290.23
2024-04-10T18:56:04.670Z,101292.16
2024-04-10T18:58:31.674Z,101300.15
2024-04-10T19:00:59.645Z,101305.34
2024-04-10T19:03:26.965Z,101309.39
2024-04-10T19:05:57.258Z,101316.74
2024-04-10T19:08:29.695Z,101314.44
2024-04-10T19:10:57.273Z,101318.23
2024-04-10T19:13:24.541Z,101320.80
2024-04-10T19:15:51.948Z,101323.25
2024-04-10T19:18:18.956Z,101322.56
2024-04-10T19:20:49.443Z,101325.15
2024-04-10T19:23:17.274Z,101322.75
2024-04-10T19:25:54.770Z,101325.39
2024-04-10T19:28:27.060Z,101327.88
2024-04-10T19:30:54.927Z,101329.54
2024-04-10T19:33:21.787Z,101327.23
2024-04-10T19:35:49.022Z,101326.29
2024-04-10T19:38:15.902Z,101330.05
2024-04-10T19:40:43.746Z,101331.30
2024-04-10T19:43:11.718Z,101331.47
2024-04-10T19:45:39.689Z,101336.58
2024-04-10T19:48:07.223Z,101337.53
2024-04-10T19:50:34.920Z,101338.72
2024-04-10T19:53:01.781Z,101343.58
2024-04-10T19:55:28.711Z,101344.03
2024-04-10T19:57:55.433Z,101344.48
2024-04-10T20:00:22.408Z,101349.10
2024-04-10T20:02:49.898Z,101349.73
2024-04-10T20:05:18.300Z,101356.80
2024-04-10T20:07:46.877Z,101355.20
2024-04-10T20:10:14.309Z,101354.09
2024-04-10T20:12:41.734Z,101356.48
2024-04-10T20:15:08.635Z,101357.47
2024-04-10T20:17:36.747Z,101356.48
2024-04-10T20:20:03.903Z,101356.71
2024-04-10T20:22:32.763Z,101361.47
2024-04-10T20:25:03.412Z,101364.49
2024-04-10T20:27:36.194Z,101363.79
2024-04-10T20:30:03.799Z,101366.22
2024-04-10T20:32:31.466Z,101367.77
2024-04-10T20:34:58.674Z,101365.25
2024-04-10T20:37:38.208Z,101366.10
2024-04-10T20:40:05.597Z,101362.88
2024-04-10T20:42:36.000Z,101361.38
2024-04-10T20:45:03.610Z,101361.42
2024-04-10T20:47:31.025Z,101358.65
2024-04-10T20:49:58.567Z,101359.92
2024-04-10T20:52:25.189Z,101358.98
2024-04-10T20:54:53.295Z,101362.14
2024-04-10T20:57:20.360Z,101364.86
2024-04-10T20:59:48.417Z,101369.02
2024-04-10T21:02:24.826Z,101366.58
2024-04-10T21:04:51.498Z,101368.36
2024-04-10T21:07:37.427Z,101366.14
2024-04-10T21:10:22.952Z,101367.09
2024-04-10T21:13:08.456Z,101364.23
2024-04-10T21:15:57.724Z,101365.83
2024-04-10T21:18:45.182Z,101366.98
2024-04-10T21:21:30.972Z,101364.04
2024-04-10T21:24:16.163Z,101364.94
2024-04-10T21:27:04.883Z,101366.84
2024-04-10T21:29:51.468Z,101370.15
2024-04-10T21:32:37.529Z,101372.48
2024-04-10T21:35:23.574Z,101377.58
2024-04-10T21:38:08.809Z,101377.69
2024-04-10T21:40:56.109Z,101376.52
2024-04-10T21:43:41.656Z,101376.11
2024-04-10T21:46:27.290Z,101378.19
2024-04-10T21:49:12.735Z,101377.36
2024-04-10T21:51:58.410Z,101382.29
2024-04-10T21:54:43.791Z,101383.86
2024-04-10T21:57:29.378Z,101385.45
2024-04-10T22:00:27.451Z,101388.61
2024-04-10T22:03:20.708Z,101388.73
2024-04-10T22:06:06.178Z,101389.28
2024-04-10T22:08:51.486Z,101385.23
2024-04-10T22:11:18.367Z,101390.72
2024-04-10T22:13:46.657Z,101392.31
2024-04-10T22:16:13.640Z,101391.67
2024-04-10T22:18:59.953Z,101396.04
2024-04-10T22:21:46.366Z,101400.44
2024-04-10T22:24:12.898Z,101399.59
2024-04-10T22:26:39.768Z,101396.17
2024-04-10T22:29:07.128Z,101397.36
2024-04-10T22:31:34.613Z,101400.63
2024-04-10T22:37:19.575Z,101405.36
2024-04-10T22:39:46.687Z,101407.11
2024-04-10T22:42:13.960Z,101405.19
2024-04-10T22:44:41.506Z,101415.98
2024-04-10T22:47:08.115Z,101403.51
2024-04-10T22:49:34.652Z,101406.11
2024-04-10T22:52:02.017Z,101414.62
2024-04-10T22:54:29.289Z,101415.60
2024-04-10T22:56:56.110Z,101414.61
2024-04-10T22:59:23.526Z,101417.67
2024-04-10T23:01:50.810Z,101417.58
2024-04-10T23:04:17.387Z,101419.55
2024-04-10T23:07:20.475Z,101421.80
2024-04-10T23:09:32.235Z,101421.95
2024-04-10T23:11:59.439Z,101421.56
2024-04-10T23:14:26.113Z,101423.54
2024-04-10T23:16:52.743Z,101423.80
2024-04-10T23:19:21.286Z,101426.77
2024-04-10T23:21:49.608Z,101424.52
2024-04-10T23:24:16.042Z,101426.02
2024-04-10T23:26:43.021Z,101426.02
2024-04-10T23:29:10.471Z,101424.71
2024-04-10T23:31:37.964Z,101429.12
2024-04-10T23:34:04.719Z,101430.98
2024-04-10T23:36:31.482Z,101428.60
2024-04-10T23:38:58.013Z,101428.03
2024-04-10T23:41:24.584Z,101425.85
2024-04-10T23:43:51.472Z,101429.60
2024-04-10T23:46:18.630Z,101428.42
2024-04-10T23:48:45.650Z,101426.63
2024-04-10T23:51:12.549Z,101423.39
2024-04-10T23:53:39.182Z,101427.27
2024-04-10T23:56:07.458Z,101425.70
2024-04-10T23:58:37.608Z,101428.70
